Time;durP1;ratioP1;P1;durP2;ratioP2;P2;SDS_P1;SDS_P2;PMS_P1;PMS_P2;Temp;Humidity;BMP_temperature;BMP_pressure;BME280_temperature;BME280_humidity;BME280_pressure;Samples;Min_cycle;Max_cycle;Signal;HPM_P1;HPM_P2
2022/11/11 00:02:12;;;;;;;;;4.00;2.00;;;;;20.96;62.08;101997.47;105728;1294;18458;-61
2022/11/11 00:04:39;;;;;;;;;2.00;2.00;;;;;20.96;62.03;101990.03;105721;1288;20116;-62
2022/11/11 00:07:07;;;;;;;;;2.00;2.00;;;;;20.96;61.95;101988.23;105716;1294;19462;-62
2022/11/11 00:09:38;;;;;;;;;4.00;2.00;;;;;20.97;61.95;101984.52;105722;1286;18429;-62
2022/11/11 00:12:05;;;;;;;;;2.00;2.00;;;;;20.97;62.02;101985.06;105722;1288;18542;-63
2022/11/11 00:14:33;;;;;;;;;3.00;3.00;;;;;20.96;61.97;101983.09;105765;1294;20677;-61
2022/11/11 00:25:15;;;;;;;;;;;;;;;20.95;61.85;101970.30;105744;1294;18306;-61
2022/11/11 00:27:43;;;;;;;;;2.00;2.00;;;;;20.96;61.82;101973.33;105736;1279;18220;-63
2022/11/11 00:30:10;;;;;;;;;1.00;1.00;;;;;20.96;61.94;101975.11;105716;1294;19313;-62
2022/11/11 00:32:37;;;;;;;;;4.00;4.00;;;;;20.96;61.96;101974.43;105762;1295;18493;-61
2022/11/11 00:37:49;;;;;;;;;2.00;2.00;;;;;20.95;61.95;101969.45;105710;1286;20959;-61
2022/11/11 00:40:17;;;;;;;;;2.00;2.00;;;;;20.94;61.73;101970.45;105740;1294;18256;-61
2022/11/11 00:42:44;;;;;;;;;4.00;2.00;;;;;20.95;61.94;101975.64;105856;1294;20096;-62
2022/11/11 00:45:11;;;;;;;;;1.50;1.50;;;;;20.94;62.03;101970.40;105710;1279;19301;-61
2022/11/11 00:53:09;;;;;;;;;2.00;2.00;;;;;20.94;61.96;101970.23;105745;1277;22696;-61
2022/11/11 00:55:36;;;;;;;;;2.00;2.00;;;;;20.94;62.00;101968.41;105738;1272;18390;-62
2022/11/11 00:58:04;;;;;;;;;1.00;1.00;;;;;20.94;61.95;101967.02;105734;1288;20066;-62
2022/11/11 01:00:31;;;;;;;;;1.00;1.00;;;;;20.92;62.03;101956.59;105723;1271;20795;-62
2022/11/11 01:02:58;;;;;;;;;1.00;1.00;;;;;20.94;61.84;101959.56;105710;1294;18523;-62
2022/11/11 01:05:25;;;;;;;;;2.00;2.00;;;;;20.94;61.80;101956.11;105746;1288;20015;-62
2022/11/11 01:07:53;;;;;;;;;1.00;1.00;;;;;20.93;61.93;101951.65;105700;1285;22255;-62
2022/11/11 01:13:11;;;;;;;;;1.00;1.00;;;;;20.92;61.83;101946.26;105736;1294;22734;-62
2022/11/11 01:15:39;;;;;;;;;1.00;1.00;;;;;20.93;61.86;101945.84;105698;1294;19244;-62
2022/11/11 01:18:06;;;;;;;;;1.00;1.00;;;;;20.93;61.67;101953.42;105634;1297;20006;-63
2022/11/11 01:20:33;;;;;;;;;1.50;1.50;;;;;20.94;61.91;101959.75;105766;1279;18501;-63
2022/11/11 01:23:01;;;;;;;;;2.00;2.00;;;;;20.93;61.97;101964.72;105731;1286;19458;-62
2022/11/11 01:25:28;;;;;;;;;1.00;1.00;;;;;20.93;61.72;101966.72;105714;1294;18659;-61
2022/11/11 01:27:55;;;;;;;;;1.00;1.00;;;;;20.93;61.76;101973.98;105721;1301;18603;-63
2022/11/11 01:30:22;;;;;;;;;2.00;2.00;;;;;20.93;61.87;101985.60;105805;1285;21975;-62
2022/11/11 01:32:50;;;;;;;;;1.00;1.00;;;;;20.92;61.76;101991.53;105736;1294;19649;-62
2022/11/11 01:35:17;;;;;;;;;1.00;1.00;;;;;20.91;61.81;101995.38;105691;1295;22216;-62
2022/11/11 01:37:44;;;;;;;;;1.00;1.00;;;;;20.92;61.91;101993.30;105720;1279;20832;-62
2022/11/11 01:40:12;;;;;;;;;1.00;1.00;;;;;20.93;61.66;101989.47;105710;1288;18398;-63
2022/11/11 01:42:39;;;;;;;;;2.00;2.00;;;;;20.91;61.90;101987.95;105743;1293;18392;-63
2022/11/11 01:45:06;;;;;;;;;2.33;2.33;;;;;20.92;61.78;101995.46;105728;1294;19266;-62
2022/11/11 01:50:15;;;;;;;;;1.50;1.50;;;;;20.92;61.75;101987.17;105715;1279;18654;-62
2022/11/11 01:52:44;;;;;;;;;2.00;2.00;;;;;20.92;61.73;101989.00;105684;1302;20806;-62
2022/11/11 01:55:11;;;;;;;;;1.00;1.00;;;;;20.92;61.72;101989.55;105716;1279;18394;-63
2022/11/11 01:57:38;;;;;;;;;1.00;1.00;;;;;20.92;61.64;101983.35;105725;1287;23347;-61
2022/11/11 02:00:06;;;;;;;;;2.50;2.50;;;;;20.91;61.67;101979.40;105715;1290;20829;-62
2022/11/11 02:02:33;;;;;;;;;1.50;1.50;;;;;20.92;61.82;101981.55;105816;1300;21438;-63
2022/11/11 02:07:45;;;;;;;;;1.50;1.50;;;;;20.91;61.73;101975.98;105728;1279;19319;-63
2022/11/11 02:10:13;;;;;;;;;1.00;1.00;;;;;20.90;61.95;101967.16;105697;1288;22643;-62
2022/11/11 02:15:25;;;;;;;;;1.00;1.00;;;;;20.90;61.72;101961.40;105725;1300;19271;-62
2022/11/11 02:17:52;;;;;;;;;1.00;1.00;;;;;20.90;61.72;101954.68;105759;1294;18552;-61
2022/11/11 02:20:20;;;;;;;;;1.00;1.00;;;;;20.89;61.68;101954.00;105747;1271;21302;-62
2022/11/11 02:22:47;;;;;;;;;2.00;2.00;;;;;20.90;61.64;101953.36;105724;1272;20840;-62
2022/11/11 02:25:14;;;;;;;;;1.00;1.00;;;;;20.89;61.73;101956.24;105737;1279;20446;-63
2022/11/11 02:27:42;;;;;;;;;2.00;2.00;;;;;20.89;61.67;101959.86;105753;1294;19039;-61
2022/11/11 02:30:14;;;;;;;;;1.00;1.00;;;;;20.90;61.68;101967.59;105692;1287;19169;-63
2022/11/11 02:32:41;;;;;;;;;1.00;1.00;;;;;20.90;61.72;101965.39;105764;1300;18441;-62
2022/11/11 02:35:09;;;;;;;;;1.00;1.00;;;;;20.90;61.53;101960.30;105701;1288;20361;-63
2022/11/11 02:37:36;;;;;;;;;1.00;1.00;;;;;20.89;61.77;101964.76;105713;1288;19505;-63
2022/11/11 02:40:06;;;;;;;;;2.00;2.00;;;;;20.89;61.78;101966.36;105701;1294;22744;-63
2022/11/11 02:42:33;;;;;;;;;1.00;1.00;;;;;20.90;61.42;101967.05;105703;1294;20021;-63
2022/11/11 02:45:00;;;;;;;;;1.00;1.00;;;;;20.90;61.71;101973.94;105718;1272;20789;-63
2022/11/11 02:47:28;;;;;;;;;1.00;1.00;;;;;20.89;61.63;101975.63;105745;1294;18363;-62
2022/11/11 02:49:55;;;;;;;;;2.00;2.00;;;;;20.89;61.69;101976.77;105691;1279;18475;-61
2022/11/11 02:52:22;;;;;;;;;2.00;1.00;;;;;20.88;61.78;101978.10;105760;1279;19392;-62
2022/11/11 02:54:50;;;;;;;;;1.67;1.67;;;;;20.88;61.66;101973.58;105723;1279;19684;-61
2022/11/11 02:57:17;;;;;;;;;1.50;1.00;;;;;20.89;61.57;101970.21;105711;1279;19039;-62
2022/11/11 02:59:44;;;;;;;;;1.00;1.00;;;;;20.89;61.51;101969.80;105745;1286;20821;-62
2022/11/11 03:02:12;;;;;;;;;1.00;1.00;;;;;20.89;61.44;101967.42;105701;1279;19625;-62
2022/11/11 03:04:39;;;;;;;;;1.00;1.00;;;;;20.89;61.63;101966.05;105719;1294;20304;-63
2022/11/11 03:07:07;;;;;;;;;1.00;1.00;;;;;20.89;61.61;101968.20;105731;1295;19309;-62
2022/11/11 03:09:34;;;;;;;;;3.00;3.00;;;;;20.88;61.47;101970.13;105853;1272;20841;-63
2022/11/11 03:12:01;;;;;;;;;1.00;1.00;;;;;20.88;61.63;101969.39;105753;1292;18514;-63
2022/11/11 03:14:28;;;;;;;;;1.00;1.00;;;;;20.88;61.51;101970.35;105750;1293;20808;-63
2022/11/11 03:19:41;;;;;;;;;2.00;1.00;;;;;20.88;61.63;101978.88;105634;1278;20741;-62
2022/11/11 03:22:08;;;;;;;;;1.00;1.00;;;;;20.86;61.44;101978.80;105686;1278;19266;-62
2022/11/11 03:27:20;;;;;;;;;1.00;1.00;;;;;20.87;61.68;101993.45;105744;1271;19954;-62
2022/11/11 03:29:48;;;;;;;;;1.00;1.00;;;;;20.88;61.46;101999.53;105681;1294;22802;-64
2022/11/11 03:32:15;;;;;;;;;1.00;1.00;;;;;20.87;61.59;102002.20;105743;1272;18330;-62
2022/11/11 03:34:42;;;;;;;;;1.00;1.00;;;;;20.87;61.54;102005.64;105723;1278;21168;-62
2022/11/11 03:39:55;;;;;;;;;1.00;1.00;;;;;20.87;61.50;102016.71;105698;1272;19945;-62
2022/11/11 03:42:22;;;;;;;;;2.00;2.00;;;;;20.86;61.43;102017.14;105721;1294;22654;-63
2022/11/11 03:44:49;;;;;;;;;1.00;1.00;;;;;20.87;61.45;102019.98;105761;1279;19178;-62
2022/11/11 03:47:17;;;;;;;;;1.00;1.00;;;;;20.88;61.46;102022.48;105722;1294;20279;-63
2022/11/11 03:49:45;;;;;;;;;1.00;1.00;;;;;20.87;61.51;102019.98;105734;1279;18487;-63
2022/11/11 03:52:13;;;;;;;;;1.00;1.00;;;;;20.86;61.41;102016.23;105711;1287;19447;-61
2022/11/11 03:54:40;;;;;;;;;1.50;1.50;;;;;20.85;61.50;102008.16;105708;1279;19656;-62
2022/11/11 03:59:52;;;;;;;;;1.00;1.00;;;;;20.86;61.33;102017.14;105727;1294;19444;-61
2022/11/11 04:10:35;;;;;;;;;1.00;1.00;;;;;20.86;61.45;102006.50;105737;1294;20120;-61
2022/11/11 04:16:05;;;;;;;;;1.00;1.00;;;;;20.86;61.34;102014.07;105730;1290;20845;-61
2022/11/11 04:25:47;;;;;;;;;1.00;1.00;;;;;20.85;61.46;102002.20;105773;1294;19311;-63
2022/11/11 04:26:51;;;;;;;;;1.00;1.00;;;;;20.84;61.56;101996.18;105751;1297;18540;-63
2022/11/11 04:29:30;;;;;;;;;1.00;1.00;;;;;20.83;61.54;101998.37;105745;1302;18520;-63
2022/11/11 04:34:43;;;;;;;;;1.00;1.00;;;;;20.82;61.57;101994.64;105730;1295;18466;-61
2022/11/11 04:37:10;;;;;;;;;1.00;1.00;;;;;20.82;61.32;101992.86;105709;1279;18520;-63
2022/11/11 04:42:23;;;;;;;;;1.00;1.00;;;;;20.82;61.72;101988.33;105742;1294;18463;-62
2022/11/11 04:47:47;;;;;;;;;1.00;1.00;;;;;20.83;61.49;101986.98;105285;1303;19413;-63
2022/11/11 04:50:14;;;;;;;;;1.00;1.00;;;;;20.83;61.39;101989.64;105238;1301;18767;-61
2022/11/11 04:52:41;;;;;;;;;1.00;1.00;;;;;20.82;61.32;101991.95;105211;1303;18506;-61
2022/11/11 04:57:53;;;;;;;;;1.00;1.00;;;;;20.83;61.37;101986.38;105291;1286;18475;-61
2022/11/11 05:00:21;;;;;;;;;1.00;1.00;;;;;20.82;61.42;101984.04;105246;1285;18528;-62
2022/11/11 05:08:54;;;;;;;;;1.00;1.00;;;;;20.81;61.60;101975.30;105291;1301;18505;-62
2022/11/11 05:11:06;;;;;;;;;1.00;1.00;;;;;20.82;61.25;101967.45;105246;1308;19439;-61
2022/11/11 05:21:48;;;;;;;;;1.00;1.00;;;;;20.81;61.26;101969.14;105308;1294;19640;-62
2022/11/11 05:27:01;;;;;;;;;1.00;1.00;;;;;20.80;61.43;101978.65;105826;1289;21448;-62
2022/11/11 05:29:28;;;;;;;;;1.00;1.00;;;;;20.80;61.18;101982.43;105737;1279;18721;-62
2022/11/11 05:31:55;;;;;;;;;1.00;1.00;;;;;20.79;61.21;101976.91;105719;1281;19892;-62
2022/11/11 05:34:23;;;;;;;;;1.00;1.00;;;;;20.80;61.35;101971.45;105717;1294;24796;-61
2022/11/11 05:36:50;;;;;;;;;1.00;1.00;;;;;20.79;61.14;101971.70;105735;1281;18527;-62
2022/11/11 05:39:17;;;;;;;;;1.00;1.00;;;;;20.80;61.26;101981.06;105701;1286;22252;-63
2022/11/11 05:41:45;;;;;;;;;1.00;1.00;;;;;20.80;61.36;101985.36;105748;1290;19299;-62
2022/11/11 05:44:12;;;;;;;;;2.00;1.00;;;;;20.80;61.15;101979.60;105705;1286;22218;-61
2022/11/11 05:46:39;;;;;;;;;1.00;1.00;;;;;20.79;61.35;101977.65;105746;1279;20081;-63
2022/11/11 05:49:16;;;;;;;;;1.00;1.00;;;;;20.80;61.19;101977.08;105754;1271;20896;-63
2022/11/11 05:51:43;;;;;;;;;1.00;1.00;;;;;20.79;61.17;101978.27;105716;1282;18453;-62
2022/11/11 05:54:10;;;;;;;;;1.00;1.00;;;;;20.79;61.23;101975.48;105737;1290;20061;-61
2022/11/11 05:56:38;;;;;;;;;1.00;1.00;;;;;20.80;61.20;101974.35;105784;1276;19329;-63
2022/11/11 05:59:05;;;;;;;;;1.00;1.00;;;;;20.79;61.28;101970.97;105742;1288;19620;-63
2022/11/11 06:01:32;;;;;;;;;1.00;1.00;;;;;20.79;61.17;101969.17;105739;1294;22618;-63
2022/11/11 06:03:59;;;;;;;;;2.00;2.00;;;;;20.79;61.26;101968.39;105714;1272;20823;-62
2022/11/11 06:06:27;;;;;;;;;1.00;1.00;;;;;20.79;61.15;101966.17;105763;1289;22623;-63
2022/11/11 06:08:54;;;;;;;;;1.00;1.00;;;;;20.79;61.02;101966.07;105793;1280;20059;-63
2022/11/11 06:11:21;;;;;;;;;1.00;1.00;;;;;20.78;61.17;101961.80;105695;1286;19700;-62
2022/11/11 06:13:49;;;;;;;;;1.00;1.00;;;;;20.79;61.11;101968.42;105701;1294;19601;-63
2022/11/11 06:16:16;;;;;;;;;1.00;1.00;;;;;20.82;61.03;101972.55;105711;1289;18511;-63
2022/11/11 06:18:43;;;;;;;;;1.00;1.00;;;;;20.82;60.97;101983.95;105701;1285;19170;-62
2022/11/11 06:21:11;;;;;;;;;1.00;1.00;;;;;20.82;61.02;101984.69;105723;1285;19615;-62
2022/11/11 06:23:38;;;;;;;;;1.00;1.00;;;;;20.80;61.11;101976.88;105768;1294;18506;-63
2022/11/11 06:26:15;;;;;;;;;1.00;1.00;;;;;20.79;61.18;101976.19;105728;1279;20026;-62
2022/11/11 06:28:42;;;;;;;;;1.00;1.00;;;;;20.80;61.08;101971.57;105703;1294;18590;-63
2022/11/11 06:31:10;;;;;;;;;1.00;1.00;;;;;20.78;61.25;101963.75;105753;1279;20199;-62
2022/11/11 06:33:37;;;;;;;;;1.00;1.00;;;;;20.77;61.24;101965.11;105701;1294;20782;-63
2022/11/11 06:36:04;;;;;;;;;1.00;1.00;;;;;20.78;61.36;101965.61;105744;1302;18400;-63
2022/11/11 06:38:32;;;;;;;;;1.00;1.00;;;;;20.78;61.28;101968.89;105745;1295;18972;-64
2022/11/11 06:40:59;;;;;;;;;2.00;1.00;;;;;20.77;61.14;101964.63;105725;1285;22426;-62
2022/11/11 06:43:26;;;;;;;;;1.00;1.00;;;;;20.77;61.18;101970.41;105714;1272;18262;-63
2022/11/11 06:45:54;;;;;;;;;1.00;1.00;;;;;20.77;61.17;101974.94;105757;1279;22605;-62
2022/11/11 06:48:21;;;;;;;;;1.00;1.00;;;;;20.77;61.19;101979.52;105720;1279;19314;-61
2022/11/11 06:50:48;;;;;;;;;1.00;1.00;;;;;20.75;61.18;101982.61;105739;1295;18700;-62
2022/11/11 06:53:16;;;;;;;;;;;;;;;20.76;61.30;101986.19;105798;1294;18615;-61
2022/11/11 06:55:43;;;;;;;;;1.00;1.00;;;;;20.76;61.30;101987.03;105768;1285;22208;-61
2022/11/11 06:58:10;;;;;;;;;1.00;1.00;;;;;20.76;60.97;101989.23;105727;1294;18367;-62
2022/11/11 07:00:38;;;;;;;;;1.00;1.00;;;;;20.77;61.02;101995.14;105699;1272;22759;-61
2022/11/11 07:03:05;;;;;;;;;;;;;;;20.78;61.11;101998.86;105764;1287;19262;-61
2022/11/11 07:05:32;;;;;;;;;1.00;1.00;;;;;20.79;61.06;102006.53;105726;1294;23808;-61
2022/11/11 07:07:59;;;;;;;;;;;;;;;20.83;61.30;102010.39;105673;1297;18505;-60
2022/11/11 07:10:27;;;;;;;;;1.00;1.00;;;;;20.87;61.40;102016.23;105714;1279;19311;-61
2022/11/11 07:12:54;;;;;;;;;1.50;1.00;;;;;20.88;61.45;102013.88;105690;1281;18565;-61
2022/11/11 07:15:21;;;;;;;;;2.00;1.00;;;;;20.89;61.33;102012.49;105683;1287;19975;-61
2022/11/11 07:17:49;;;;;;;;;1.50;1.50;;;;;20.90;61.28;102014.23;105736;1289;19344;-60
2022/11/11 07:20:16;;;;;;;;;2.00;2.00;;;;;20.91;61.54;102017.24;105703;1279;19652;-60
2022/11/11 07:22:43;;;;;;;;;1.00;1.00;;;;;20.92;61.58;102020.20;105762;1279;18511;-60
2022/11/11 07:25:11;;;;;;;;;2.00;2.00;;;;;20.93;61.64;102023.21;105747;1289;21104;-62
2022/11/11 07:27:38;;;;;;;;;2.00;2.00;;;;;20.94;61.61;102026.20;105722;1279;18742;-61
2022/11/11 07:30:05;;;;;;;;;2.00;2.00;;;;;20.95;61.91;102029.06;105698;1297;20066;-60
2022/11/11 07:32:33;;;;;;;;;1.00;1.00;;;;;20.95;61.92;102028.84;105729;1286;21335;-61
2022/11/11 07:35:00;;;;;;;;;2.00;2.00;;;;;20.95;61.91;102016.88;105742;1294;18418;-61
2022/11/11 07:37:27;;;;;;;;;1.00;1.00;;;;;20.93;62.04;102020.11;105702;1294;18791;-61
2022/11/11 07:39:55;;;;;;;;;2.00;1.00;;;;;20.93;62.04;102020.31;105738;1286;19400;-62
2022/11/11 07:42:22;;;;;;;;;1.50;1.50;;;;;20.93;61.97;102022.48;105746;1295;18495;-62
2022/11/11 07:44:50;;;;;;;;;2.00;2.00;;;;;20.93;62.04;102019.96;105761;1287;18725;-62
2022/11/11 07:47:17;;;;;;;;;2.00;2.00;;;;;20.93;61.87;102028.16;105682;1294;19283;-62
2022/11/11 07:49:44;;;;;;;;;1.00;1.00;;;;;20.91;61.66;102029.17;105698;1294;18514;-62
2022/11/11 07:52:12;;;;;;;;;1.50;1.50;;;;;20.92;61.77;102031.66;105616;1294;19977;-60
2022/11/11 07:54:39;;;;;;;;;1.00;1.00;;;;;20.93;61.90;102036.27;105628;1281;19322;-62
2022/11/11 07:57:06;;;;;;;;;2.00;2.00;;;;;20.95;62.09;102034.48;105682;1295;23265;-62
2022/11/11 07:59:34;;;;;;;;;2.00;2.00;;;;;20.94;62.19;102023.44;105673;1271;18488;-61
2022/11/11 08:02:01;;;;;;;;;2.00;2.00;;;;;20.96;62.10;102030.38;105577;1271;20858;-62
2022/11/11 08:04:29;;;;;;;;;4.00;2.00;;;;;20.98;62.12;102030.56;105649;1295;18648;-62
2022/11/11 08:06:56;;;;;;;;;4.00;4.00;;;;;20.99;62.13;102037.73;105695;1280;20229;-62
2022/11/11 08:09:24;;;;;;;;;1.00;1.00;;;;;21.00;62.28;102039.47;105616;1285;21828;-62
2022/11/11 08:14:37;;;;;;;;;1.00;1.00;;;;;20.98;62.62;102045.23;105759;1271;20075;-60
2022/11/11 08:17:04;;;;;;;;;2.00;2.00;;;;;20.98;62.60;102046.90;105728;1279;19427;-62
2022/11/11 08:19:31;;;;;;;;;2.00;1.00;;;;;20.98;62.62;102047.27;105639;1301;18396;-61
2022/11/11 08:21:59;;;;;;;;;2.00;2.00;;;;;20.99;62.58;102042.48;105459;1271;21612;-61
2022/11/11 08:24:26;;;;;;;;;1.00;1.00;;;;;20.99;62.62;102041.69;105650;1294;19270;-62
2022/11/11 08:26:53;;;;;;;;;1.50;1.50;;;;;20.99;62.79;102045.52;105705;1294;18463;-62
2022/11/11 08:29:20;;;;;;;;;4.00;4.00;;;;;20.99;62.54;102040.98;105598;1283;19015;-61
2022/11/11 08:31:48;;;;;;;;;4.00;2.00;;;;;21.02;62.47;102043.64;105594;1271;19359;-61
2022/11/11 08:34:15;;;;;;;;;2.00;2.00;;;;;21.02;62.63;102046.52;105652;1279;18382;-62
2022/11/11 08:36:42;;;;;;;;;1.00;1.00;;;;;21.01;62.73;102041.70;105633;1294;20246;-62
2022/11/11 08:39:10;;;;;;;;;1.00;1.00;;;;;20.99;62.59;102046.41;105667;1300;19280;-62
2022/11/11 08:41:38;;;;;;;;;1.50;1.50;;;;;21.00;62.60;102046.36;105497;1272;22822;-62
2022/11/11 08:44:05;;;;;;;;;6.00;5.00;;;;;21.06;62.51;102046.83;105644;1275;18491;-59
2022/11/11 08:46:32;;;;;;;;;;;;;;;21.09;62.59;102053.84;105688;1294;20669;-60
2022/11/11 08:49:00;;;;;;;;;79.00;58.50;;;;;21.06;62.54;102059.09;105664;1279;19672;-61
2022/11/11 08:51:28;;;;;;;;;74.00;54.50;;;;;21.05;62.52;102068.95;105795;1272;20367;-62
2022/11/11 08:53:55;;;;;;;;;;;;;;;21.05;62.37;102066.58;105703;1271;22700;-62
2022/11/11 08:56:22;;;;;;;;;59.00;45.00;;;;;21.03;62.63;102066.60;105690;1279;18534;-63
2022/11/11 08:58:50;;;;;;;;;49.00;44.00;;;;;21.02;62.57;102059.95;105664;1272;18605;-62
2022/11/11 09:01:18;;;;;;;;;45.00;32.00;;;;;21.02;62.47;102050.70;105700;1288;20844;-63
2022/11/11 09:03:46;;;;;;;;;;;;;;;21.04;62.38;102059.05;105766;1278;18598;-63
2022/11/11 09:06:13;;;;;;;;;33.00;29.00;;;;;21.05;62.40;102068.55;105675;1279;20356;-61
2022/11/11 09:08:41;;;;;;;;;;;;;;;21.06;62.19;102073.91;105721;1294;19279;-61
2022/11/11 09:11:08;;;;;;;;;20.00;18.00;;;;;21.04;62.35;102079.20;105580;1295;20058;-61
2022/11/11 09:13:35;;;;;;;;;21.00;18.00;;;;;21.03;62.46;102088.00;105560;1272;18518;-61
2022/11/11 09:16:03;;;;;;;;;18.50;17.00;;;;;21.02;62.50;102088.36;105603;1272;20861;-61
2022/11/11 09:18:31;;;;;;;;;19.00;13.00;;;;;21.00;62.51;102088.65;105701;1294;20158;-61
2022/11/11 09:20:59;;;;;;;;;15.00;13.00;;;;;20.98;62.56;102082.30;105744;1279;21076;-62
2022/11/11 09:23:26;;;;;;;;;13.50;11.50;;;;;20.98;62.54;102076.52;105674;1279;19424;-62
2022/11/11 09:25:53;;;;;;;;;16.00;15.00;;;;;20.96;62.51;102076.69;105718;1292;20076;-62
2022/11/11 09:28:21;;;;;;;;;11.00;9.00;;;;;20.95;62.52;102076.94;105772;1290;21380;-62
2022/11/11 09:30:48;;;;;;;;;16.00;11.00;;;;;20.95;62.68;102080.48;105531;1279;20777;-62
2022/11/11 09:33:17;;;;;;;;;8.00;8.00;;;;;20.95;62.48;102075.40;105687;1276;20099;-61
2022/11/11 09:35:44;;;;;;;;;8.00;8.00;;;;;20.93;62.43;102076.61;105782;1294;18489;-62
2022/11/11 09:38:11;;;;;;;;;10.50;9.50;;;;;20.93;62.40;102083.55;105709;1279;19311;-61
2022/11/11 09:40:39;;;;;;;;;9.00;7.00;;;;;20.91;62.31;102081.20;105673;1294;18399;-62
2022/11/11 09:43:06;;;;;;;;;6.00;6.00;;;;;20.91;62.36;102090.29;105760;1285;18521;-61
2022/11/11 09:45:33;;;;;;;;;8.00;7.33;;;;;20.90;62.26;102086.77;105732;1279;22981;-63
2022/11/11 09:48:01;;;;;;;;;7.00;7.00;;;;;20.90;62.27;102088.60;105758;1297;18430;-61
2022/11/11 09:50:28;;;;;;;;;;;;;;;20.89;62.02;102083.59;105745;1279;18604;-60
2022/11/11 09:52:55;;;;;;;;;7.00;7.00;;;;;20.89;62.00;102084.16;105730;1272;19360;-61
2022/11/11 09:55:23;;;;;;;;;4.00;4.00;;;;;20.88;61.97;102078.05;105720;1295;19472;-61
2022/11/11 09:57:50;;;;;;;;;5.00;5.00;;;;;20.88;61.87;102078.58;105701;1272;22337;-62
2022/11/11 10:00:17;;;;;;;;;7.00;5.00;;;;;20.87;61.58;102067.77;105766;1294;21151;-61
2022/11/11 10:02:45;;;;;;;;;8.00;5.00;;;;;20.87;61.64;102056.28;105778;1275;20956;-62
2022/11/11 10:05:12;;;;;;;;;6.00;6.00;;;;;20.87;61.55;102048.18;105705;1272;27823;-63
2022/11/11 10:07:39;;;;;;;;;5.00;5.00;;;;;20.86;61.40;102052.83;105660;1279;20964;-61
2022/11/11 10:10:07;;;;;;;;;4.00;4.00;;;;;20.85;61.06;102043.11;105697;1279;18432;-62
2022/11/11 10:12:34;;;;;;;;;5.00;5.00;;;;;20.85;61.13;102040.15;105711;1279;20044;-62
2022/11/11 10:15:01;;;;;;;;;7.00;7.00;;;;;20.84;61.03;102040.61;105722;1294;19597;-62
2022/11/11 10:17:28;;;;;;;;;4.00;4.00;;;;;20.84;60.86;102035.36;105684;1271;19676;-62
2022/11/11 10:19:56;;;;;;;;;4.00;4.00;;;;;20.85;60.72;102032.03;105745;1294;18644;-62
2022/11/11 10:22:23;;;;;;;;;5.00;5.00;;;;;20.84;60.68;102029.17;105709;1281;19298;-63
2022/11/11 10:24:50;;;;;;;;;4.67;4.67;;;;;20.84;60.53;102018.33;105719;1275;18466;-62
2022/11/11 10:27:18;;;;;;;;;4.00;4.00;;;;;20.83;60.42;102024.15;105755;1282;19957;-60
2022/11/11 10:29:45;;;;;;;;;7.00;7.00;;;;;20.83;60.17;102028.36;105771;1278;21764;-62
2022/11/11 10:32:12;;;;;;;;;7.00;2.00;;;;;20.82;60.15;102020.12;105746;1275;19572;-61
2022/11/11 10:34:40;;;;;;;;;5.00;5.00;;;;;20.82;59.94;102023.91;105737;1279;20147;-61
2022/11/11 10:37:07;;;;;;;;;7.00;7.00;;;;;20.83;59.94;102014.38;105737;1271;19259;-61
2022/11/11 10:39:34;;;;;;;;;5.00;5.00;;;;;20.82;59.73;102021.89;105743;1294;18401;-62
2022/11/11 10:42:01;;;;;;;;;6.00;5.00;;;;;20.82;59.73;102021.92;105771;1294;18504;-60
2022/11/11 10:44:29;;;;;;;;;6.00;5.00;;;;;20.81;59.83;102019.24;105624;1271;19588;-61
2022/11/11 10:46:56;;;;;;;;;7.00;5.00;;;;;20.81;59.58;102020.54;105699;1279;20090;-61
2022/11/11 10:49:23;;;;;;;;;5.00;5.00;;;;;20.81;59.52;102024.04;105702;1290;20089;-61
2022/11/11 10:51:51;;;;;;;;;4.00;4.00;;;;;20.81;59.48;102032.39;105752;1281;19280;-60
2022/11/11 10:54:18;;;;;;;;;4.50;4.50;;;;;20.82;59.50;102034.11;105772;1287;18464;-62
2022/11/11 10:56:46;;;;;;;;;5.00;4.00;;;;;20.82;59.26;102041.20;105756;1286;18614;-62
2022/11/11 10:59:13;;;;;;;;;7.00;7.00;;;;;20.82;59.24;102042.48;105738;1278;19290;-62
2022/11/11 11:01:42;;;;;;;;;4.00;4.00;;;;;20.80;58.95;102046.79;105745;1285;18418;-60
2022/11/11 11:04:09;;;;;;;;;5.00;5.00;;;;;20.80;59.23;102052.80;105752;1280;21756;-61
2022/11/11 11:06:37;;;;;;;;;5.00;5.00;;;;;20.80;58.88;102055.52;105684;1294;19286;-62
2022/11/11 11:09:04;;;;;;;;;5.00;5.00;;;;;20.80;59.11;102057.48;105733;1297;18354;-62
2022/11/11 11:11:31;;;;;;;;;5.00;5.00;;;;;20.82;58.89;102060.13;105696;1294;18835;-63
2022/11/11 11:13:58;;;;;;;;;4.00;4.00;;;;;20.80;58.91;102063.67;105716;1296;19840;-62
2022/11/11 11:16:27;;;;;;;;;4.00;4.00;;;;;20.79;59.05;102065.80;105709;1294;20562;-61
2022/11/11 11:18:55;;;;;;;;;4.00;4.00;;;;;20.80;58.72;102076.77;105679;1279;22363;-61
2022/11/11 11:21:22;;;;;;;;;7.00;5.00;;;;;20.79;58.75;102071.02;105723;1279;19460;-61
2022/11/11 11:23:50;;;;;;;;;5.00;4.50;;;;;20.79;58.62;102074.32;105749;1294;23180;-62
2022/11/11 11:26:17;;;;;;;;;5.00;5.00;;;;;20.79;58.82;102079.60;105642;1281;20066;-62
2022/11/11 11:28:44;;;;;;;;;7.00;7.00;;;;;20.78;58.74;102085.32;105711;1272;19280;-61
2022/11/11 11:31:11;;;;;;;;;4.00;4.00;;;;;20.78;58.74;102089.70;105711;1294;22294;-62
2022/11/11 11:33:39;;;;;;;;;4.00;4.00;;;;;20.78;58.42;102083.71;105732;1295;18549;-62
2022/11/11 11:36:06;;;;;;;;;5.00;5.00;;;;;20.78;58.48;102082.55;105743;1289;22748;-62
2022/11/11 11:38:33;;;;;;;;;7.00;7.00;;;;;20.77;58.34;102082.15;105740;1295;18308;-61
2022/11/11 11:41:01;;;;;;;;;4.50;4.50;;;;;20.78;58.43;102084.83;105723;1301;31517;-60
2022/11/11 11:43:28;;;;;;;;;5.00;5.00;;;;;20.77;58.28;102080.51;105699;1294;19291;-62
2022/11/11 11:45:55;;;;;;;;;7.00;5.00;;;;;20.76;58.24;102080.10;105708;1278;18447;-61
2022/11/11 11:48:23;;;;;;;;;5.00;5.00;;;;;20.77;58.31;102072.01;105685;1271;18632;-62
2022/11/11 11:50:50;;;;;;;;;;;;;;;20.81;58.09;102063.06;105753;1297;19257;-61
2022/11/11 11:53:18;;;;;;;;;7.00;6.00;;;;;20.83;58.18;102058.18;105668;1272;18734;-61
2022/11/11 11:55:45;;;;;;;;;4.50;4.50;;;;;20.86;58.24;102066.21;105685;1279;20087;-62
2022/11/11 11:58:13;;;;;;;;;7.00;7.00;;;;;20.87;58.29;102061.98;105686;1294;20850;-62
2022/11/11 12:00:40;;;;;;;;;5.00;5.00;;;;;20.89;58.36;102064.64;105664;1272;19699;-64
2022/11/11 12:03:08;;;;;;;;;5.00;5.00;;;;;20.95;58.70;102056.06;105688;1279;20050;-63
2022/11/11 12:05:35;;;;;;;;;5.00;5.00;;;;;20.97;58.88;102047.34;105665;1279;20819;-63
2022/11/11 12:08:02;;;;;;;;;5.50;4.00;;;;;20.97;58.96;102034.44;105680;1278;18463;-60
2022/11/11 12:10:30;;;;;;;;;8.00;5.00;;;;;20.97;58.96;102031.92;105735;1294;20072;-62
2022/11/11 12:12:57;;;;;;;;;5.00;4.00;;;;;20.97;59.02;102036.48;105718;1275;20758;-63
2022/11/11 12:15:24;;;;;;;;;5.00;4.00;;;;;21.01;58.94;102039.91;105734;1294;19249;-61
2022/11/11 12:17:52;;;;;;;;;8.00;5.00;;;;;21.06;59.49;102041.98;105652;1286;142239;-61
2022/11/11 12:20:19;;;;;;;;;5.00;4.00;;;;;21.06;59.99;102036.50;105673;1296;19290;-62
2022/11/11 12:22:46;;;;;;;;;5.00;5.00;;;;;21.07;60.36;102036.23;105638;1294;19107;-62
2022/11/11 12:25:14;;;;;;;;;4.50;4.50;;;;;21.07;60.89;102036.58;105763;1279;18553;-62
2022/11/11 12:27:41;;;;;;;;;5.50;5.50;;;;;21.08;60.87;102036.15;105766;1295;21511;-62
2022/11/11 12:30:08;;;;;;;;;4.50;4.50;;;;;21.09;60.88;102042.39;105767;1294;18642;-62
2022/11/11 12:32:36;;;;;;;;;5.00;4.50;;;;;21.09;61.06;102046.55;105712;1286;24196;-63
2022/11/11 12:35:03;;;;;;;;;8.00;6.00;;;;;21.09;60.87;102051.48;105744;1287;19451;-62
2022/11/11 12:37:30;;;;;;;;;;;;;;;21.11;61.03;102055.10;105727;1279;18602;-61
2022/11/11 12:39:57;;;;;;;;;116.00;101.50;;;;;21.14;61.01;102051.26;105753;1279;19657;-62
2022/11/11 12:42:25;;;;;;;;;101.00;82.00;;;;;21.13;60.96;102047.88;105632;1279;20789;-62
2022/11/11 12:44:52;;;;;;;;;91.00;71.00;;;;;21.16;60.81;102049.89;105717;1279;23667;-62
2022/11/11 12:47:19;;;;;;;;;85.00;65.00;;;;;21.17;60.76;102053.97;105702;1272;20124;-62